Time;durP1;ratioP1;P1;durP2;ratioP2;P2;SDS_P1;SDS_P2;PMS_P1;PMS_P2;Temp;Humidity;BMP_temperature;BMP_pressure;BME280_temperature;BME280_humidity;BME280_pressure;Samples;Min_cycle;Max_cycle;Signal;HPM_P1;HPM_P2
2022/12/28 00:01:19;;;;;;;5.68;2.00;;;6.10;99.90;;;;;;5049926;28;20206;-45
2022/12/28 00:03:45;;;;;;;5.80;1.45;;;6.20;99.90;;;;;;5050140;28;20174;-45
2022/12/28 00:06:11;;;;;;;4.80;1.83;;;6.20;99.90;;;;;;5049798;28;20170;-45
2022/12/28 00:08:37;;;;;;;11.68;2.45;;;6.20;99.90;;;;;;5049866;28;20195;-44
2022/12/28 00:11:06;;;;;;;5.80;1.60;;;6.20;99.90;;;;;;5049057;28;20171;-45
2022/12/28 00:13:34;;;;;;;6.25;1.73;;;6.30;99.90;;;;;;5050440;28;20580;-45
2022/12/28 00:16:14;;;;;;;5.63;1.63;;;6.30;99.90;;;;;;5050375;28;20216;-44
2022/12/28 00:18:40;;;;;;;5.78;2.10;;;6.30;99.90;;;;;;5049888;28;20166;-45
2022/12/28 00:21:05;;;;;;;11.70;3.67;;;6.40;99.90;;;;;;5049598;28;20252;-46
2022/12/28 00:23:31;;;;;;;3.92;1.83;;;6.30;99.90;;;;;;5050185;28;20253;-46
2022/12/28 00:26:11;;;;;;;3.85;1.63;;;6.30;99.90;;;;;;5049868;28;20171;-46
2022/12/28 00:28:38;;;;;;;4.80;1.90;;;6.30;99.90;;;;;;5049583;28;20166;-45
2022/12/28 00:31:04;;;;;;;3.47;2.05;;;6.30;99.90;;;;;;5049683;28;20246;-46
2022/12/28 00:33:33;;;;;;;4.53;2.00;;;6.40;99.90;;;;;;5050116;28;20170;-45
2022/12/28 00:36:00;;;;;;;3.88;1.60;;;6.30;99.90;;;;;;5049848;28;20171;-45
2022/12/28 00:38:27;;;;;;;6.00;1.85;;;6.40;99.90;;;;;;5049585;28;20166;-45
2022/12/28 00:40:53;;;;;;;2.55;1.52;;;6.40;99.90;;;;;;5048218;28;20262;-45
2022/12/28 00:43:19;;;;;;;6.82;2.13;;;6.40;99.90;;;;;;5049687;28;20197;-45
2022/12/28 00:45:48;;;;;;;9.00;2.15;;;6.40;99.90;;;;;;5049536;28;20178;-45
2022/12/28 00:48:15;;;;;;;6.93;2.35;;;6.40;99.90;;;;;;5049345;28;20209;-46
2022/12/28 00:50:42;;;;;;;4.38;1.83;;;6.40;99.90;;;;;;5049378;28;20166;-45
2022/12/28 00:53:08;;;;;;;5.82;2.63;;;6.50;99.90;;;;;;5049527;28;20170;-46
2022/12/28 00:55:34;;;;;;;3.60;2.00;;;6.50;99.90;;;;;;5049473;28;20650;-46
2022/12/28 00:58:01;;;;;;;4.70;2.08;;;6.50;99.90;;;;;;5049795;28;20173;-46
2022/12/28 01:00:28;;;;;;;4.88;2.13;;;6.60;99.90;;;;;;5049301;28;20224;-46
2022/12/28 01:02:54;;;;;;;5.72;2.33;;;6.60;99.90;;;;;;5048776;28;20224;-45
2022/12/28 01:05:21;;;;;;;6.82;1.90;;;6.70;99.90;;;;;;5049485;28;20170;-45
2022/12/28 01:07:48;;;;;;;8.25;2.25;;;6.70;99.90;;;;;;5049312;28;20706;-46
2022/12/28 01:10:14;;;;;;;4.93;2.30;;;6.80;99.90;;;;;;5049385;28;20171;-46
2022/12/28 01:12:40;;;;;;;4.88;2.10;;;6.70;99.90;;;;;;5049334;28;20524;-46
2022/12/28 01:15:09;;;;;;;2.85;1.67;;;6.70;99.90;;;;;;5049336;28;20217;-46
2022/12/28 01:17:36;;;;;;;4.78;2.00;;;6.80;99.90;;;;;;5049234;28;20285;-45
2022/12/28 01:20:02;;;;;;;7.13;2.50;;;6.80;99.90;;;;;;5051270;28;20669;-45
2022/12/28 01:22:28;;;;;;;4.38;1.77;;;6.80;99.90;;;;;;5053626;28;20172;-46
2022/12/28 01:24:54;;;;;;;3.10;1.70;;;6.80;99.90;;;;;;5053137;28;20539;-46
2022/12/28 01:27:19;;;;;;;4.57;2.13;;;6.80;99.90;;;;;;5053036;28;20262;-46
2022/12/28 01:29:45;;;;;;;6.93;2.15;;;6.70;99.90;;;;;;5053003;28;20254;-45
2022/12/28 01:32:11;;;;;;;7.68;2.15;;;6.80;99.90;;;;;;5052744;28;20166;-45
2022/12/28 01:34:37;;;;;;;12.77;2.70;;;6.80;99.90;;;;;;5051655;28;20166;-46
2022/12/28 01:37:02;;;;;;;4.75;1.80;;;6.80;99.90;;;;;;5053039;28;20250;-45
2022/12/28 01:39:28;;;;;;;5.35;2.00;;;6.80;99.90;;;;;;5053367;28;20191;-45
2022/12/28 01:41:54;;;;;;;3.58;2.03;;;6.70;99.90;;;;;;5052781;28;20217;-45
2022/12/28 01:44:23;;;;;;;2.45;2.13;;;6.70;99.90;;;;;;5052838;28;20163;-46
2022/12/28 01:47:01;;;;;;;5.07;2.05;;;6.80;99.90;;;;;;5052603;28;20166;-46
2022/12/28 01:49:32;;;;;;;5.00;1.95;;;6.80;99.90;;;;;;5052416;28;20530;-46
2022/12/28 01:52:16;;;;;;;4.68;2.03;;;6.80;99.90;;;;;;5053463;28;20158;-46
2022/12/28 01:54:52;;;;;;;4.90;2.13;;;6.80;99.90;;;;;;5054779;28;20576;-46
2022/12/28 01:57:22;;;;;;;3.17;2.00;;;6.90;99.90;;;;;;5054483;28;20249;-46
2022/12/28 01:59:54;;;;;;;2.53;1.70;;;6.90;99.90;;;;;;5054345;28;20576;-47
2022/12/28 02:02:20;;;;;;;5.18;1.83;;;6.90;99.90;;;;;;5054343;28;20214;-46
2022/12/28 02:04:46;;;;;;;4.43;1.55;;;6.90;99.90;;;;;;5054376;28;20205;-46
2022/12/28 02:07:18;;;;;;;6.78;2.03;;;7.00;99.90;;;;;;5054198;28;20178;-46
2022/12/28 02:09:44;;;;;;;3.85;1.77;;;7.00;99.90;;;;;;5054287;28;20181;-46
2022/12/28 02:12:13;;;;;;;2.65;1.77;;;7.10;99.90;;;;;;5054522;28;20634;-46
2022/12/28 02:14:40;;;;;;;6.28;2.42;;;7.10;99.90;;;;;;5054222;28;20159;-46
2022/12/28 02:17:08;;;;;;;8.38;2.60;;;7.20;99.90;;;;;;5054147;28;20174;-46
2022/12/28 02:19:48;;;;;;;10.13;2.03;;;7.30;99.90;;;;;;5053984;28;20657;-46
2022/12/28 02:22:43;;;;;;;6.03;2.05;;;7.30;99.90;;;;;;5054241;28;20181;-46
2022/12/28 02:25:33;;;;;;;6.50;2.20;;;7.30;99.90;;;;;;5054265;28;20171;-46
2022/12/28 02:28:25;;;;;;;4.25;1.92;;;7.40;99.90;;;;;;5054405;28;20585;-46
2022/12/28 02:31:02;;;;;;;5.47;2.13;;;7.50;99.90;;;;;;5052771;28;20166;-46
2022/12/28 02:34:01;;;;;;;5.18;2.20;;;7.70;99.90;;;;;;5054274;28;20184;-46
2022/12/28 02:36:33;;;;;;;5.50;2.00;;;7.70;99.90;;;;;;5051983;28;20174;-46
2022/12/28 02:39:07;;;;;;;5.18;2.33;;;7.80;99.90;;;;;;5054022;28;20261;-46
2022/12/28 02:41:33;;;;;;;7.75;3.58;;;7.80;99.90;;;;;;5053654;28;20206;-46
2022/12/28 02:43:59;;;;;;;5.65;2.58;;;7.80;99.90;;;;;;5054296;28;20162;-46
2022/12/28 02:52:33;;;;;;;6.13;2.80;;;7.60;99.90;;;;;;5053778;28;20190;-46
2022/12/28 02:58:13;;;;;;;7.53;3.50;;;7.70;99.90;;;;;;5053045;28;20228;-46
2022/12/28 03:01:05;;;;;;;6.93;2.13;;;7.70;99.90;;;;;;5053180;28;20206;-46
2022/12/28 03:03:44;;;;;;;4.78;2.67;;;7.70;99.90;;;;;;5052934;28;20191;-46
2022/12/28 03:09:27;;;;;;;6.20;2.25;;;7.70;99.90;;;;;;5053459;28;20221;-46
2022/12/28 03:12:03;;;;;;;6.55;2.30;;;7.80;99.90;;;;;;5053082;28;20171;-46
2022/12/28 03:14:45;;;;;;;7.10;2.85;;;7.80;99.90;;;;;;5053384;28;20175;-46
2022/12/28 03:31:13;;;;;;;7.03;2.65;;;7.90;99.90;;;;;;5052859;28;20177;-46
2022/12/28 03:33:43;;;;;;;8.23;2.63;;;8.00;99.90;;;;;;5052950;28;20201;-46
2022/12/28 03:36:12;;;;;;;5.68;1.63;;;8.00;99.90;;;;;;5052538;28;20197;-46
2022/12/28 03:38:43;;;;;;;4.65;1.80;;;8.00;99.90;;;;;;5052678;28;20541;-46
2022/12/28 03:41:14;;;;;;;3.85;2.13;;;8.00;99.90;;;;;;5052512;28;20206;-45
2022/12/28 03:43:49;;;;;;;6.93;2.35;;;8.00;99.90;;;;;;5052134;28;20175;-46
2022/12/28 03:46:23;;;;;;;6.53;1.90;;;8.00;99.90;;;;;;5052435;28;20166;-46
2022/12/28 03:48:50;;;;;;;1.98;1.00;;;8.00;99.90;;;;;;5052417;28;20159;-46
2022/12/28 03:51:19;;;;;;;5.00;1.50;;;8.10;99.90;;;;;;5052369;28;20245;-45
2022/12/28 03:53:46;;;;;;;3.92;1.70;;;8.10;99.90;;;;;;5052352;28;20163;-46
2022/12/28 03:56:20;;;;;;;3.75;1.73;;;8.10;99.90;;;;;;5051414;28;20206;-46
2022/12/28 03:58:46;;;;;;;1.50;1.13;;;8.00;99.90;;;;;;5052132;28;20162;-46
2022/12/28 04:01:12;;;;;;;1.65;1.10;;;8.00;99.90;;;;;;5052035;28;20198;-45
2022/12/28 04:03:38;;;;;;;3.15;1.20;;;8.10;99.90;;;;;;5052289;28;20162;-46
2022/12/28 04:06:04;;;;;;;1.75;1.20;;;8.10;99.90;;;;;;5051771;28;20254;-46
2022/12/28 04:08:31;;;;;;;1.23;1.10;;;8.10;99.90;;;;;;5052412;28;20178;-46
2022/12/28 04:11:00;;;;;;;2.28;1.05;;;8.20;99.90;;;;;;5052454;28;20236;-46
2022/12/28 04:13:32;;;;;;;1.05;0.65;;;8.30;99.90;;;;;;5052387;28;20173;-46
2022/12/28 04:16:05;;;;;;;1.63;1.10;;;8.30;99.90;;;;;;5052183;28;20170;-46
2022/12/28 04:18:32;;;;;;;2.38;1.25;;;8.30;99.90;;;;;;5052014;28;20169;-46
2022/12/28 04:20:58;;;;;;;1.42;1.20;;;8.30;99.90;;;;;;5052241;28;20215;-46
2022/12/28 04:23:23;;;;;;;3.78;1.60;;;8.30;99.90;;;;;;5051482;28;20171;-46
2022/12/28 04:26:07;;;;;;;2.38;1.50;;;8.40;99.90;;;;;;5051828;28;20170;-46
2022/12/28 04:28:33;;;;;;;4.00;1.30;;;8.40;99.90;;;;;;5051829;28;20209;-46
2022/12/28 04:31:00;;;;;;;2.55;1.40;;;8.40;99.90;;;;;;5052178;28;20174;-46
2022/12/28 04:33:26;;;;;;;1.77;1.27;;;8.50;99.90;;;;;;5052044;28;20208;-46
2022/12/28 04:35:52;;;;;;;1.42;1.33;;;8.50;99.90;;;;;;5051802;28;20167;-46
2022/12/28 04:38:19;;;;;;;2.67;1.15;;;8.50;99.90;;;;;;5051761;28;20698;-46
2022/12/28 04:40:45;;;;;;;2.65;1.27;;;8.50;99.90;;;;;;5051228;28;20206;-46
2022/12/28 04:43:11;;;;;;;4.05;1.27;;;8.50;99.90;;;;;;5051117;28;20182;-46
2022/12/28 04:45:37;;;;;;;5.05;1.55;;;8.60;99.90;;;;;;5051659;28;20169;-46
2022/12/28 04:48:02;;;;;;;1.50;1.05;;;8.60;99.90;;;;;;5051576;28;20171;-46
2022/12/28 04:50:28;;;;;;;1.90;1.13;;;8.70;99.90;;;;;;5050608;28;20196;-46
2022/12/28 04:52:54;;;;;;;2.75;1.30;;;8.70;99.90;;;;;;5051604;28;20257;-46
2022/12/28 04:55:20;;;;;;;4.10;1.40;;;8.70;99.90;;;;;;5054021;28;20162;-46
2022/12/28 04:57:46;;;;;;;1.73;1.23;;;8.70;99.90;;;;;;5055687;28;20178;-46
2022/12/28 05:00:13;;;;;;;1.23;1.00;;;8.80;99.90;;;;;;5055708;28;20202;-46
2022/12/28 05:02:39;;;;;;;0.98;0.85;;;8.80;99.90;;;;;;5055388;28;20214;-46
2022/12/28 05:05:04;;;;;;;4.40;1.83;;;8.70;99.90;;;;;;5055529;28;20598;-46
2022/12/28 05:07:30;;;;;;;0.70;0.70;;;8.80;99.90;;;;;;5055408;28;20264;-46
2022/12/28 05:09:56;;;;;;;3.42;1.27;;;8.90;99.90;;;;;;5055165;28;20262;-46
2022/12/28 05:12:21;;;;;;;1.88;0.80;;;8.90;99.90;;;;;;5055321;28;20170;-46
2022/12/28 05:14:47;;;;;;;2.03;1.45;;;9.00;99.90;;;;;;5055344;28;20174;-46
2022/12/28 05:17:13;;;;;;;2.97;1.27;;;8.90;99.90;;;;;;5055353;28;20250;-46
2022/12/28 05:19:39;;;;;;;2.47;1.10;;;8.90;99.90;;;;;;5055307;28;20634;-46
2022/12/28 05:22:10;;;;;;;4.22;1.35;;;9.00;99.90;;;;;;5055087;28;20617;-46
2022/12/28 05:24:39;;;;;;;1.40;1.13;;;8.90;99.90;;;;;;5055486;28;20177;-46
2022/12/28 05:27:05;;;;;;;2.60;1.15;;;9.00;99.90;;;;;;5054786;28;20159;-46
2022/12/28 05:29:30;;;;;;;2.90;1.10;;;8.90;99.90;;;;;;5055348;28;20181;-46
2022/12/28 05:31:56;;;;;;;3.17;1.15;;;9.00;99.90;;;;;;5055439;28;20551;-46
2022/12/28 05:34:22;;;;;;;2.25;1.08;;;9.00;99.90;;;;;;5054962;28;20175;-46
2022/12/28 05:36:47;;;;;;;2.42;0.90;;;9.00;99.90;;;;;;5054989;28;20220;-46
2022/12/28 05:39:13;;;;;;;3.85;1.25;;;9.00;99.90;;;;;;5054852;28;20167;-46
2022/12/28 05:41:38;;;;;;;1.05;0.95;;;9.10;99.90;;;;;;5054720;28;20206;-46
2022/12/28 05:44:04;;;;;;;2.13;1.10;;;9.10;99.90;;;;;;5054987;28;20183;-46
2022/12/28 05:46:33;;;;;;;1.45;0.90;;;9.10;99.90;;;;;;5055188;28;20534;-46
2022/12/28 05:48:59;;;;;;;3.17;1.17;;;9.10;99.90;;;;;;5055017;28;20178;-46
2022/12/28 05:51:31;;;;;;;2.75;1.25;;;9.10;99.90;;;;;;5054688;28;20170;-46
2022/12/28 05:53:58;;;;;;;5.07;1.10;;;9.10;99.90;;;;;;5054811;28;20649;-46
2022/12/28 05:56:26;;;;;;;0.85;0.85;;;9.20;99.90;;;;;;5054578;28;20193;-46
2022/12/28 05:59:01;;;;;;;2.63;1.08;;;9.20;99.90;;;;;;5053584;28;20170;-46
2022/12/28 06:01:29;;;;;;;1.40;1.02;;;9.10;99.90;;;;;;5054574;28;20225;-46
2022/12/28 06:03:59;;;;;;;0.60;0.60;;;9.20;99.90;;;;;;5054718;28;20572;-46
2022/12/28 06:06:25;;;;;;;1.33;0.95;;;9.20;99.90;;;;;;5054472;28;20626;-46
2022/12/28 06:08:51;;;;;;;3.75;1.10;;;9.20;99.90;;;;;;5054227;28;20173;-46
2022/12/28 06:11:20;;;;;;;2.55;1.23;;;9.20;99.90;;;;;;5053791;28;20163;-46
2022/12/28 06:13:45;;;;;;;1.25;0.75;;;9.10;99.90;;;;;;5054378;28;20190;-46
2022/12/28 06:16:20;;;;;;;1.25;0.95;;;9.20;99.90;;;;;;5054132;28;20634;-46
2022/12/28 06:18:46;;;;;;;1.05;0.93;;;9.20;99.90;;;;;;5054337;28;20253;-46
2022/12/28 06:21:14;;;;;;;4.53;1.05;;;9.20;99.90;;;;;;5052585;28;20289;-46
2022/12/28 06:23:40;;;;;;;2.55;0.98;;;9.20;99.90;;;;;;5054147;28;20175;-46
2022/12/28 06:26:07;;;;;;;3.60;1.40;;;9.10;99.90;;;;;;5053954;28;20195;-46
2022/12/28 06:28:35;;;;;;;5.30;1.20;;;9.10;99.90;;;;;;5053965;28;20360;-46
2022/12/28 06:31:21;;;;;;;2.55;1.08;;;9.10;99.90;;;;;;5053597;28;20206;-46
2022/12/28 06:33:48;;;;;;;1.77;1.38;;;9.10;99.90;;;;;;5054139;28;20182;-46
2022/12/28 06:36:19;;;;;;;2.67;1.00;;;9.10;99.90;;;;;;5053749;28;20189;-45
2022/12/28 06:38:46;;;;;;;4.25;1.23;;;9.10;99.90;;;;;;5052374;28;20171;-46
2022/12/28 06:41:13;;;;;;;1.27;0.82;;;9.00;99.90;;;;;;5053370;28;20217;-46
2022/12/28 06:43:39;;;;;;;2.80;1.05;;;9.10;99.90;;;;;;5053505;28;20166;-46
2022/12/28 06:46:05;;;;;;;2.95;0.82;;;9.10;99.90;;;;;;5053624;28;20248;-46
2022/12/28 06:48:32;;;;;;;0.88;0.85;;;9.10;99.90;;;;;;5053642;28;20522;-46
2022/12/28 06:51:01;;;;;;;1.08;0.82;;;9.10;99.90;;;;;;5053881;28;20194;-46
2022/12/28 06:53:28;;;;;;;1.10;0.75;;;9.10;99.90;;;;;;5053835;28;20171;-46
2022/12/28 06:55:56;;;;;;;3.47;0.95;;;9.10;99.90;;;;;;5053613;28;20654;-46
2022/12/28 06:58:23;;;;;;;1.83;1.20;;;9.10;99.90;;;;;;5053331;28;20213;-46
2022/12/28 07:00:49;;;;;;;1.48;1.08;;;9.10;99.90;;;;;;5052989;28;20194;-46
2022/12/28 07:03:14;;;;;;;4.45;0.80;;;9.10;99.90;;;;;;5052698;28;20289;-46
2022/12/28 07:05:40;;;;;;;5.78;1.33;;;9.20;99.90;;;;;;5053478;28;20175;-46
2022/12/28 07:08:06;;;;;;;0.98;0.80;;;9.20;99.90;;;;;;5053260;28;20247;-46
2022/12/28 07:10:35;;;;;;;2.25;1.05;;;9.20;99.90;;;;;;5051853;28;20173;-46
2022/12/28 07:13:01;;;;;;;2.45;1.00;;;9.10;99.90;;;;;;5052907;28;20182;-46
2022/12/28 07:15:27;;;;;;;1.60;0.82;;;9.10;99.90;;;;;;5053565;28;20257;-46
2022/12/28 07:17:53;;;;;;;1.15;0.68;;;9.20;99.90;;;;;;5052133;28;20202;-46
2022/12/28 07:20:18;;;;;;;0.57;0.57;;;9.20;99.90;;;;;;5052532;28;20198;-46
2022/12/28 07:22:44;;;;;;;10.52;1.00;;;9.20;99.90;;;;;;5052810;28;20176;-46
2022/12/28 07:25:09;;;;;;;2.05;1.13;;;9.20;99.90;;;;;;5052905;28;20253;-46
2022/12/28 07:27:35;;;;;;;1.95;0.50;;;9.20;99.90;;;;;;5052767;28;20203;-46
2022/12/28 07:30:02;;;;;;;2.55;0.52;;;9.20;99.90;;;;;;5052697;28;20167;-46
2022/12/28 07:32:27;;;;;;;3.22;0.73;;;9.20;99.90;;;;;;5052876;28;20169;-46
2022/12/28 07:34:53;;;;;;;1.00;0.90;;;9.30;99.90;;;;;;5052377;28;20162;-47
2022/12/28 07:37:19;;;;;;;0.90;0.90;;;9.30;99.90;;;;;;5052654;28;20199;-47
2022/12/28 07:39:44;;;;;;;0.98;0.68;;;9.20;99.90;;;;;;5052587;28;20175;-47
2022/12/28 07:42:11;;;;;;;1.08;0.73;;;9.20;99.90;;;;;;5052498;28;20215;-47
2022/12/28 07:44:37;;;;;;;0.95;0.60;;;9.30;99.90;;;;;;5052603;28;20174;-46
2022/12/28 07:47:03;;;;;;;3.03;0.55;;;9.30;99.90;;;;;;5052297;28;20194;-46
2022/12/28 07:49:28;;;;;;;3.10;0.85;;;9.30;99.90;;;;;;5052488;28;20197;-46
2022/12/28 07:51:54;;;;;;;1.98;0.50;;;9.30;99.90;;;;;;5052099;28;20526;-46
2022/12/28 07:54:19;;;;;;;1.50;0.68;;;9.30;99.90;;;;;;5051810;28;20602;-46
2022/12/28 07:56:45;;;;;;;0.60;0.50;;;9.30;99.90;;;;;;5052316;28;20254;-46
2022/12/28 07:59:13;;;;;;;7.13;1.20;;;9.30;99.90;;;;;;5051781;28;20635;-46
2022/12/28 08:01:38;;;;;;;0.82;0.50;;;9.40;99.90;;;;;;5051678;28;20678;-47
2022/12/28 08:04:07;;;;;;;1.67;0.70;;;9.40;99.90;;;;;;5051529;28;20250;-46
2022/12/28 08:06:36;;;;;;;0.90;0.50;;;9.40;99.90;;;;;;5052099;28;20178;-48
2022/12/28 08:09:03;;;;;;;2.70;0.70;;;9.40;99.90;;;;;;5052253;28;20530;-46
2022/12/28 08:11:31;;;;;;;2.72;0.98;;;9.40;99.90;;;;;;5052552;28;20532;-45
2022/12/28 08:13:57;;;;;;;0.40;0.40;;;9.40;99.90;;;;;;5052608;28;20639;-45
2022/12/28 08:16:25;;;;;;;1.30;0.77;;;9.50;99.90;;;;;;5051751;28;20209;-45
2022/12/28 08:18:51;;;;;;;1.95;0.80;;;9.40;99.90;;;;;;5051882;28;20193;-45
2022/12/28 08:21:29;;;;;;;0.68;0.63;;;9.50;99.90;;;;;;5052081;28;20335;-46
2022/12/28 08:23:55;;;;;;;0.73;0.65;;;9.50;99.90;;;;;;5051874;28;20173;-46
2022/12/28 08:26:26;;;;;;;1.85;0.70;;;9.50;99.90;;;;;;5051555;28;20658;-46
2022/12/28 08:28:56;;;;;;;1.77;0.60;;;9.50;99.90;;;;;;5051497;28;20178;-46
2022/12/28 08:31:25;;;;;;;1.30;0.57;;;9.60;99.90;;;;;;5051549;28;20626;-46
2022/12/28 08:33:52;;;;;;;0.70;0.70;;;9.60;99.90;;;;;;5051974;28;20174;-46
2022/12/28 08:36:17;;;;;;;1.10;0.50;;;9.60;99.90;;;;;;5051837;28;20171;-45
2022/12/28 08:38:44;;;;;;;1.52;0.68;;;9.60;99.90;;;;;;5051680;28;20171;-46
2022/12/28 08:41:13;;;;;;;1.75;0.60;;;9.70;99.90;;;;;;5051582;28;20210;-46
2022/12/28 08:43:38;;;;;;;1.67;0.82;;;9.70;99.90;;;;;;5051596;28;20171;-46
2022/12/28 08:46:16;;;;;;;0.68;0.68;;;9.70;99.90;;;;;;5051633;28;20173;-46
2022/12/28 08:48:42;;;;;;;1.70;0.98;;;9.70;99.90;;;;;;5051663;28;20181;-46
2022/12/28 08:51:11;;;;;;;3.40;0.75;;;9.70;99.90;;;;;;5051509;28;20174;-45
2022/12/28 08:53:37;;;;;;;1.60;0.65;;;9.70;99.90;;;;;;5051625;28;20163;-46
2022/12/28 08:56:11;;;;;;;1.20;0.57;;;9.70;99.90;;;;;;5051586;28;20178;-46
2022/12/28 08:58:38;;;;;;;0.43;0.43;;;9.70;99.90;;;;;;5051456;28;20167;-47
2022/12/28 09:01:09;;;;;;;0.52;0.30;;;9.80;99.90;;;;;;5050816;28;20689;-46
2022/12/28 09:03:36;;;;;;;1.20;0.50;;;9.80;99.90;;;;;;5051353;28;20175;-45
2022/12/28 09:06:07;;;;;;;1.80;0.80;;;9.80;99.90;;;;;;5051490;28;20167;-45
2022/12/28 09:08:33;;;;;;;0.45;0.43;;;9.80;99.90;;;;;;5050696;28;20175;-45
2022/12/28 09:11:00;;;;;;;1.35;0.50;;;9.90;99.90;;;;;;5051558;28;20534;-46
2022/12/28 09:13:26;;;;;;;1.40;0.60;;;9.90;99.90;;;;;;5051848;28;20178;-46
2022/12/28 09:16:00;;;;;;;2.65;1.08;;;9.90;99.90;;;;;;5051052;28;20159;-45
2022/12/28 09:18:26;;;;;;;1.23;0.50;;;9.90;99.90;;;;;;5051219;28;20170;-46
2022/12/28 09:20:54;;;;;;;0.98;0.88;;;9.90;99.90;;;;;;5050677;28;20206;-46
2022/12/28 09:23:21;;;;;;;0.95;0.47;;;9.90;99.90;;;;;;5050761;28;20175;-46
2022/12/28 09:25:47;;;;;;;1.90;0.90;;;9.90;99.90;;;;;;5050923;28;20629;-46
2022/12/28 09:28:13;;;;;;;2.05;0.80;;;9.90;99.90;;;;;;5049815;28;20183;-46
2022/12/28 09:30:38;;;;;;;1.98;0.65;;;9.90;99.90;;;;;;5050967;28;20232;-46
2022/12/28 09:35:48;;;;;;;1.85;0.70;;;10.00;99.90;;;;;;5050942;28;20170;-46
2022/12/28 09:38:14;;;;;;;0.90;0.70;;;10.00;99.90;;;;;;5050673;28;20163;-46
2022/12/28 09:40:40;;;;;;;2.38;0.75;;;10.00;99.90;;;;;;5050708;28;20236;-46
2022/12/28 09:43:08;;;;;;;2.28;0.73;;;10.00;99.90;;;;;;5054565;28;20257;-46
2022/12/28 09:45:34;;;;;;;0.55;0.55;;;10.10;99.90;;;;;;5054561;28;20159;-46
2022/12/28 09:48:06;;;;;;;2.03;0.93;;;10.10;99.90;;;;;;5054602;28;20166;-45
2022/12/28 09:50:34;;;;;;;0.80;0.80;;;10.00;99.90;;;;;;5054403;28;20219;-45
2022/12/28 09:53:22;;;;;;;0.90;0.73;;;10.10;99.90;;;;;;5054189;28;20578;-45
2022/12/28 09:55:53;;;;;;;0.75;0.50;;;10.10;99.90;;;;;;5054638;28;20174;-45
2022/12/28 09:58:20;;;;;;;1.15;1.05;;;10.10;99.90;;;;;;5054345;28;20239;-45
2022/12/28 10:00:49;;;;;;;1.42;0.90;;;10.10;99.90;;;;;;5054515;28;20202;-45
2022/12/28 10:03:19;;;;;;;0.75;0.70;;;10.10;99.90;;;;;;5053975;28;20218;-46
2022/12/28 10:05:45;;;;;;;1.08;0.77;;;10.10;99.90;;;;;;5053895;28;20171;-45
2022/12/28 10:08:16;;;;;;;2.97;1.00;;;10.10;99.90;;;;;;5053670;28;20264;-46
2022/12/28 10:10:43;;;;;;;3.40;1.40;;;10.10;99.90;;;;;;5054110;28;20638;-45
2022/12/28 10:13:24;;;;;;;0.50;0.50;;;10.10;99.90;;;;;;5053939;28;20170;-46
2022/12/28 10:15:51;;;;;;;2.30;1.30;;;10.20;99.90;;;;;;5054287;28;20167;-45
2022/12/28 10:18:22;;;;;;;2.15;0.90;;;10.20;99.90;;;;;;5053734;28;20175;-46
2022/12/28 10:20:48;;;;;;;1.38;0.85;;;10.20;99.90;;;;;;5053809;28;20218;-46
2022/12/28 10:23:19;;;;;;;1.15;0.70;;;10.20;99.90;;;;;;5053982;28;20633;-45
2022/12/28 10:25:46;;;;;;;0.88;0.60;;;10.20;99.90;;;;;;5054061;28;20258;-46
2022/12/28 10:28:13;;;;;;;0.52;0.50;;;10.20;99.90;;;;;;5053832;28;20761;-46
2022/12/28 10:30:47;;;;;;;1.90;1.25;;;10.20;99.90;;;;;;5053796;28;20167;-46
2022/12/28 10:33:18;;;;;;;1.23;1.02;;;10.30;99.90;;;;;;5053782;28;20246;-46
2022/12/28 10:35:51;;;;;;;3.28;1.20;;;10.20;99.90;;;;;;5053808;28;20232;-46
2022/12/28 10:38:26;;;;;;;2.17;0.85;;;10.30;99.90;;;;;;5053557;28;20166;-45
2022/12/28 10:41:08;;;;;;;0.90;0.47;;;10.30;99.90;;;;;;5053313;28;20202;-45
2022/12/28 10:43:37;;;;;;;2.78;0.88;;;10.30;99.90;;;;;;5053333;28;20167;-46
2022/12/28 10:46:06;;;;;;;1.48;0.98;;;10.30;99.90;;;;;;5052955;28;20163;-45
2022/12/28 10:48:37;;;;;;;0.52;0.52;;;10.40;99.90;;;;;;5053253;28;20159;-45
2022/12/28 10:51:14;;;;;;;2.03;1.00;;;10.40;99.90;;;;;;5052933;28;20206;-45
2022/12/28 10:53:45;;;;;;;4.00;1.42;;;10.40;99.90;;;;;;5052194;28;20163;-46
2022/12/28 10:56:21;;;;;;;0.60;0.55;;;10.40;99.90;;;;;;5052965;28;20629;-46
2022/12/28 10:58:49;;;;;;;1.65;1.10;;;10.40;99.90;;;;;;5053207;28;20167;-46
2022/12/28 11:01:22;;;;;;;1.33;0.85;;;10.40;99.90;;;;;;5053016;28;20202;-46
2022/12/28 11:03:58;;;;;;;4.05;1.52;;;10.40;99.90;;;;;;5053335;28;20194;-45
2022/12/28 11:06:29;;;;;;;1.10;0.85;;;10.50;99.90;;;;;;5053050;28;20169;-46
2022/12/28 11:09:05;;;;;;;4.00;1.30;;;10.50;99.90;;;;;;5053394;28;20249;-45
2022/12/28 11:11:32;;;;;;;1.30;0.80;;;10.50;99.90;;;;;;5053125;28;20178;-46
2022/12/28 11:14:14;;;;;;;2.80;1.02;;;10.50;99.90;;;;;;5053130;28;20161;-46
2022/12/28 11:16:41;;;;;;;0.70;0.70;;;10.50;99.90;;;;;;5052906;28;20232;-46
2022/12/28 11:19:07;;;;;;;3.15;1.40;;;10.50;99.90;;;;;;5052545;28;20167;-47
2022/12/28 11:21:34;;;;;;;3.38;1.80;;;10.50;99.90;;;;;;5052897;28;20628;-46
2022/12/28 11:24:00;;;;;;;4.25;1.42;;;10.60;99.90;;;;;;5052829;28;20163;-45
2022/12/28 11:26:27;;;;;;;1.55;1.08;;;10.60;99.90;;;;;;5052993;28;20241;-46
2022/12/28 11:28:53;;;;;;;4.88;1.30;;;10.60;99.90;;;;;;5052570;28;20254;-45
2022/12/28 11:31:28;;;;;;;4.35;1.00;;;10.60;99.90;;;;;;5052763;28;20174;-45
2022/12/28 11:33:57;;;;;;;3.58;1.30;;;10.60;99.90;;;;;;5052187;28;20162;-45
2022/12/28 11:36:25;;;;;;;1.45;1.10;;;10.60;99.90;;;;;;5052456;28;20170;-45
2022/12/28 11:38:53;;;;;;;1.77;1.30;;;10.60;99.90;;;;;;5052489;28;20163;-46
2022/12/28 11:41:26;;;;;;;1.92;1.02;;;10.60;99.90;;;;;;5052342;28;20237;-45
2022/12/28 11:43:56;;;;;;;1.98;1.27;;;10.50;99.90;;;;;;5052384;28;20174;-45
2022/12/28 11:46:22;;;;;;;3.60;1.38;;;10.50;99.90;;;;;;5052379;28;20173;-45
2022/12/28 11:48:47;;;;;;;2.17;1.00;;;10.50;99.90;;;;;;5051763;28;20253;-45
2022/12/28 11:51:22;;;;;;;1.35;1.17;;;10.50;99.90;;;;;;5052371;28;20171;-45
2022/12/28 11:53:52;;;;;;;1.35;1.23;;;10.50;99.90;;;;;;5052359;28;20174;-45
2022/12/28 11:56:20;;;;;;;2.65;1.42;;;10.50;99.90;;;;;;5052453;28;20163;-45
2022/12/28 11:58:47;;;;;;;2.22;1.70;;;10.50;99.90;;;;;;5052281;28;20197;-46
2022/12/28 12:01:35;;;;;;;2.20;1.85;;;10.50;99.90;;;;;;5051717;28;20213;-45
2022/12/28 12:04:04;;;;;;;5.00;2.60;;;10.50;99.90;;;;;;5051251;28;20182;-45
2022/12/28 12:06:44;;;;;;;5.88;2.13;;;10.50;99.90;;;;;;5051997;28;20178;-45
2022/12/28 12:09:29;;;;;;;1.65;1.00;;;10.50;99.90;;;;;;5048552;28;20170;-45
2022/12/28 12:11:57;;;;;;;1.67;0.95;;;10.50;99.90;;;;;;5051964;28;20169;-45
2022/12/28 12:14:26;;;;;;;4.05;1.80;;;10.50;99.90;;;;;;5051757;28;20216;-45
2022/12/28 12:17:13;;;;;;;1.73;1.20;;;10.50;99.90;;;;;;5051555;28;20627;-45
2022/12/28 12:19:45;;;;;;;3.55;1.23;;;10.50;99.90;;;;;;5051774;28;20266;-45
2022/12/28 12:22:20;;;;;;;2.00;1.08;;;10.50;99.90;;;;;;5051627;28;20264;-46
2022/12/28 12:24:53;;;;;;;3.13;1.40;;;10.40;99.90;;;;;;5051600;28;20618;-45
2022/12/28 12:27:35;;;;;;;2.63;1.27;;;10.50;99.90;;;;;;5051788;28;20159;-45
2022/12/28 12:30:17;;;;;;;1.85;1.40;;;10.40;99.90;;;;;;5051173;28;20173;-45
2022/12/28 12:32:45;;;;;;;2.65;1.17;;;10.50;99.90;;;;;;5051185;28;20224;-46
2022/12/28 12:35:14;;;;;;;2.22;1.10;;;10.40;99.90;;;;;;5051332;28;20208;-46
2022/12/28 12:37:53;;;;;;;1.60;0.90;;;10.40;99.90;;;;;;5050937;28;20198;-46
2022/12/28 12:40:21;;;;;;;2.92;1.10;;;10.50;99.90;;;;;;5051489;28;20270;-45
2022/12/28 12:43:02;;;;;;;1.77;0.93;;;10.50;99.90;;;;;;5051234;28;20178;-45
2022/12/28 12:45:40;;;;;;;1.70;1.30;;;10.50;99.90;;;;;;5051382;28;20698;-45
2022/12/28 12:48:36;;;;;;;4.43;0.95;;;10.50;99.90;;;;;;5051500;28;20178;-46
2022/12/28 12:51:21;;;;;;;1.73;0.90;;;10.50;99.90;;;;;;5050088;28;20232;-45
2022/12/28 12:54:43;;;;;;;1.13;0.70;;;10.50;99.90;;;;;;5051407;28;20512;-45
2022/12/28 12:57:24;;;;;;;1.40;0.82;;;10.40;99.90;;;;;;5028835;28;20171;-45
2022/12/28 13:00:20;;;;;;;2.70;1.30;;;10.40;99.90;;;;;;5029195;28;20639;-45
2022/12/28 13:03:18;;;;;;;2.92;1.55;;;10.40;99.90;;;;;;5044099;28;20220;-46
2022/12/28 13:06:03;;;;;;;5.38;1.27;;;10.40;99.90;;;;;;5051219;28;20634;-45
2022/12/28 13:08:40;;;;;;;2.00;1.65;;;10.30;99.90;;;;;;5051406;28;20665;-45
2022/12/28 13:11:10;;;;;;;3.00;1.60;;;10.30;99.90;;;;;;5050911;28;20195;-45
2022/12/28 13:13:40;;;;;;;1.70;1.23;;;10.30;99.90;;;;;;5050755;28;20253;-45
2022/12/28 13:16:14;;;;;;;3.90;1.50;;;10.40;99.90;;;;;;5053141;28;20187;-45
2022/12/28 13:18:39;;;;;;;6.00;2.47;;;10.40;99.90;;;;;;5054863;28;20163;-46
2022/12/28 13:21:06;;;;;;;2.53;1.73;;;10.40;99.90;;;;;;5054974;28;20693;-46
2022/12/28 13:23:41;;;;;;;3.85;2.20;;;10.40;99.90;;;;;;5055112;28;20179;-45
2022/12/28 13:26:10;;;;;;;3.88;2.28;;;10.50;99.90;;;;;;5055024;28;20174;-46
2022/12/28 13:28:36;;;;;;;3.78;2.08;;;10.50;99.90;;;;;;5054851;28;20205;-45
2022/12/28 13:31:12;;;;;;;6.85;2.80;;;10.50;99.90;;;;;;5054855;28;20171;-45
2022/12/28 13:33:38;;;;;;;8.70;3.25;;;10.50;99.90;;;;;;5054850;28;20185;-45
2022/12/28 13:36:14;;;;;;;7.15;3.72;;;10.50;99.90;;;;;;5054686;28;20536;-45